createdAt,value
2023-01-29T00:00:00.394Z,1000.3219
2023-01-29T00:01:00.498Z,999.8964
2023-01-29T00:02:00.638Z,999.8964
2023-01-29T00:03:00.765Z,1000.1266
2023-01-29T00:04:00.836Z,1000.1824
2023-01-29T00:05:13.006Z,1000.0359
2023-01-29T00:06:01.025Z,1000.0429
2023-01-29T00:07:01.125Z,1000.008
2023-01-29T00:08:00.234Z,999.7779
2023-01-29T00:09:00.349Z,999.9731
2023-01-29T00:10:00.459Z,999.9174
2023-01-29T00:11:00.577Z,999.8128
2023-01-29T00:12:00.665Z,999.8685
2023-01-29T00:13:00.787Z,1000.0498
2023-01-29T00:14:00.887Z,999.7849
2023-01-29T00:15:00.985Z,999.8128
2023-01-29T00:16:01.105Z,999.9383
2023-01-29T00:17:01.237Z,999.7918
2023-01-29T00:18:00.304Z,999.8755
2023-01-29T00:19:00.409Z,999.8755
2023-01-29T00:20:00.498Z,999.7639
2023-01-29T00:21:00.655Z,999.7221
2023-01-29T00:22:00.718Z,999.5718
2023-01-29T00:23:00.818Z,999.7779
2023-01-29T00:24:00.981Z,999.516
2023-01-29T00:25:01.054Z,999.6275
2023-01-29T00:26:01.131Z,999.7221
2023-01-29T00:27:00.252Z,999.6206
2023-01-29T00:28:00.350Z,999.7221
2023-01-29T00:29:00.462Z,999.5718
2023-01-29T00:30:00.587Z,999.5439
2023-01-29T00:31:00.825Z,999.6554
2023-01-29T00:32:00.912Z,999.5927
2023-01-29T00:33:00.869Z,999.5439
2023-01-29T00:34:00.985Z,999.6803
2023-01-29T00:35:01.110Z,999.4672
2023-01-29T00:36:01.201Z,999.6873
2023-01-29T00:37:00.303Z,999.5578
2023-01-29T00:38:00.408Z,999.53
2023-01-29T00:39:00.618Z,999.4742
2023-01-29T00:40:00.638Z,999.5091
2023-01-29T00:41:00.726Z,999.8336
2023-01-29T00:42:00.834Z,999.6803
2023-01-29T00:43:00.951Z,999.5857
2023-01-29T00:44:01.050Z,999.7918
2023-01-29T00:45:01.177Z,999.7291
2023-01-29T00:46:00.271Z,999.4324
2023-01-29T00:47:00.395Z,999.4324
2023-01-29T00:48:00.477Z,999.5718
2023-01-29T00:49:00.959Z,999.5161
2023-01-29T00:50:00.707Z,999.5788
2023-01-29T00:51:00.793Z,999.5648
2023-01-29T00:52:00.908Z,999.7918
2023-01-29T00:53:01.001Z,999.7988
2023-01-29T00:54:01.109Z,999.757
2023-01-29T00:55:01.242Z,999.5161
2023-01-29T00:56:00.311Z,999.7918
2023-01-29T00:57:00.420Z,999.8336
2023-01-29T00:58:00.509Z,999.5927
2023-01-29T00:59:00.621Z,999.4951
2023-01-29T01:00:00.740Z,999.757
2023-01-29T01:01:00.879Z,999.7918
2023-01-29T01:02:01.028Z,999.4603
2023-01-29T01:03:01.038Z,999.6942
2023-01-29T01:04:01.141Z,999.7291
2023-01-29T01:05:00.259Z,999.7291
2023-01-29T01:06:00.362Z,999.5718
2023-01-29T01:07:00.477Z,999.6694
2023-01-29T01:08:00.630Z,999.6624
2023-01-29T01:09:00.666Z,999.8406
2023-01-29T01:10:00.793Z,999.7291
2023-01-29T01:11:00.886Z,999.6206
2023-01-29T01:12:00.996Z,999.7082
2023-01-29T01:13:01.136Z,999.7639
2023-01-29T01:14:01.200Z,999.8058
2023-01-29T01:15:00.307Z,999.5788
2023-01-29T01:16:00.479Z,999.7082
2023-01-29T01:17:00.515Z,999.6733
2023-01-29T01:18:00.636Z,999.6803
2023-01-29T01:19:00.745Z,999.5231
2023-01-29T01:20:00.837Z,999.5231
2023-01-29T01:21:00.937Z,999.5718
2023-01-29T01:22:01.032Z,999.5231
2023-01-29T01:23:01.148Z,999.6624
2023-01-29T01:24:00.305Z,999.7291
2023-01-29T01:25:00.379Z,999.6485
2023-01-29T01:26:00.459Z,999.537
2023-01-29T01:27:00.566Z,999.4882
2023-01-29T01:28:00.725Z,999.5719
2023-01-29T01:29:00.765Z,999.5928
2023-01-29T01:30:00.892Z,999.5649
2023-01-29T01:31:01.019Z,999.5092
2023-01-29T01:32:01.147Z,999.5301
2023-01-29T01:33:01.217Z,999.335
2023-01-29T01:34:00.316Z,999.4326
2023-01-29T01:35:00.403Z,999.5858
2023-01-29T01:36:00.515Z,999.4883
2023-01-29T01:37:00.607Z,999.551
2023-01-29T01:38:00.714Z,999.5371
2023-01-29T01:39:00.812Z,999.6137
2023-01-29T01:40:00.908Z,999.6764
2023-01-29T01:41:01.019Z,999.6137
2023-01-29T01:42:01.125Z,999.6485
2023-01-29T01:43:00.249Z,999.6137
2023-01-29T01:44:00.333Z,999.551
2023-01-29T01:45:00.467Z,999.5789
2023-01-29T01:46:00.622Z,999.6625
2023-01-29T01:47:00.640Z,999.6625
2023-01-29T01:48:00.773Z,999.5789
2023-01-29T01:49:00.864Z,999.6803
2023-01-29T01:50:00.944Z,999.551
2023-01-29T01:51:01.052Z,999.6067
2023-01-29T01:52:01.157Z,999.4535
2023-01-29T01:53:00.259Z,999.5092
2023-01-29T01:54:00.374Z,999.3978
2023-01-29T01:55:00.490Z,999.5092
2023-01-29T01:56:00.563Z,999.4466
2023-01-29T01:57:00.680Z,999.551
2023-01-29T01:58:00.803Z,999.4466
2023-01-29T01:59:00.879Z,999.4744
2023-01-29T02:00:01.002Z,999.363
2023-01-29T02:01:01.141Z,999.551
2023-01-29T02:02:01.307Z,999.3978
2023-01-29T02:03:00.318Z,999.4187
2023-01-29T02:04:00.414Z,999.4187
2023-01-29T02:05:00.519Z,999.4814
2023-01-29T02:06:00.631Z,999.4535
2023-01-29T02:07:00.772Z,999.4257
2023-01-29T02:08:00.844Z,999.4744
2023-01-29T02:09:00.951Z,999.5023
2023-01-29T02:10:01.045Z,999.4187
2023-01-29T02:11:01.150Z,999.4187
2023-01-29T02:12:00.255Z,999.3491
2023-01-29T02:13:00.383Z,999.4048
2023-01-29T02:14:00.470Z,999.3909
2023-01-29T02:15:00.566Z,999.3282
2023-01-29T02:16:00.732Z,999.2725
2023-01-29T02:17:00.790Z,999.3561
2023-01-29T02:18:00.917Z,999.1889
2023-01-29T02:19:01.003Z,999.2655
2023-01-29T02:20:01.116Z,999.2307
2023-01-29T02:21:01.209Z,999.1054
2023-01-29T02:22:00.315Z,999.2517
2023-01-29T02:23:02.558Z,999.2935
2023-01-29T02:24:00.698Z,999.1403
2023-01-29T02:25:00.620Z,999.2935
2023-01-29T02:26:00.756Z,999.2379
2023-01-29T02:27:00.819Z,999.2518
2023-01-29T02:28:00.937Z,999.1057
2023-01-29T02:29:01.060Z,999.2797
2023-01-29T02:30:01.166Z,999.2519
2023-01-29T02:31:00.418Z,999.2172
2023-01-29T02:32:00.453Z,999.1198
2023-01-29T02:33:00.456Z,999.2798
2023-01-29T02:34:00.572Z,999.4886
2023-01-29T02:35:00.686Z,999.2033
2023-01-29T02:36:00.769Z,999.4538
2023-01-29T02:37:00.880Z,999.273
2023-01-29T02:38:00.984Z,999.3008
2023-01-29T02:39:01.084Z,999.3773
2023-01-29T02:40:01.227Z,999.1965
2023-01-29T02:41:00.297Z,999.28
2023-01-29T02:42:00.409Z,999.3078
2023-01-29T02:43:00.511Z,999.2452
2023-01-29T02:44:00.618Z,999.2661
2023-01-29T02:45:00.753Z,999.2314
2023-01-29T02:46:00.968Z,999.3774
2023-01-29T02:47:00.939Z,999.1827
2023-01-29T02:48:01.029Z,999.294
2023-01-29T02:49:01.136Z,999.3149
2023-01-29T02:50:00.266Z,999.155
2023-01-29T02:51:00.371Z,999.308
2023-01-29T02:52:00.468Z,999.2455
2023-01-29T02:53:00.570Z,999.3359
2023-01-29T02:54:00.673Z,999.3428
2023-01-29T02:55:00.805Z,999.3637
2023-01-29T02:56:00.892Z,999.2943
2023-01-29T02:57:01.002Z,999.3291
2023-01-29T02:58:01.114Z,999.3152
2023-01-29T02:59:01.205Z,999.5237
2023-01-29T03:00:00.338Z,999.4126
2023-01-29T03:01:00.493Z,999.4612
2023-01-29T03:02:00.554Z,999.6736
2023-01-29T03:03:00.630Z,999.3432
2023-01-29T03:04:00.744Z,999.4752
2023-01-29T03:05:00.855Z,999.5516
2023-01-29T03:06:00.968Z,999.5099
2023-01-29T03:07:01.067Z,999.4612
2023-01-29T03:08:01.167Z,999.4682
2023-01-29T03:09:00.305Z,999.4474
2023-01-29T03:10:00.379Z,999.4752
2023-01-29T03:11:00.486Z,999.4197
2023-01-29T03:12:00.652Z,999.4891
2023-01-29T03:13:00.685Z,999.6736
2023-01-29T03:14:00.809Z,999.4544
2023-01-29T03:15:00.900Z,999.4336
2023-01-29T03:16:01.000Z,999.385
2023-01-29T03:17:01.109Z,999.2462
2023-01-29T03:18:01.205Z,999.4059
2023-01-29T03:19:00.343Z,999.4059
2023-01-29T03:20:00.423Z,999.4337
2023-01-29T03:21:00.520Z,999.3158
2023-01-29T03:22:00.636Z,999.4477
2023-01-29T03:23:00.721Z,999.3713
2023-01-29T03:24:00.848Z,999.3436
2023-01-29T03:25:00.981Z,999.413
2023-01-29T03:26:01.058Z,999.2534
2023-01-29T03:27:01.146Z,999.5241
2023-01-29T03:28:00.278Z,999.1632
2023-01-29T03:29:00.353Z,999.2812
2023-01-29T03:30:00.458Z,999.3575
2023-01-29T03:31:00.697Z,999.6767
2023-01-29T03:32:00.682Z,999.6767
2023-01-29T03:33:00.769Z,999.642
2023-01-29T03:34:00.917Z,999.6767
2023-01-29T03:35:00.979Z,999.6767
2023-01-29T03:36:01.111Z,999.4269
2023-01-29T03:37:01.183Z,999.4616
2023-01-29T03:38:00.290Z,999.6767
2023-01-29T03:39:00.416Z,999.5726
2023-01-29T03:40:00.499Z,999.5241
2023-01-29T03:41:00.618Z,999.5241
2023-01-29T03:42:00.751Z,999.2534
2023-01-29T03:43:00.828Z,999.4269
2023-01-29T03:44:00.925Z,999.3088
2023-01-29T03:45:01.037Z,999.5587
2023-01-29T03:46:01.215Z,999.3366
2023-01-29T03:47:00.270Z,999.4476
2023-01-29T03:48:00.371Z,999.517
2023-01-29T03:49:00.467Z,999.4059
2023-01-29T03:50:00.641Z,999.4337
2023-01-29T03:51:00.672Z,999.4129
2023-01-29T03:52:00.788Z,999.4406
2023-01-29T03:53:00.878Z,999.3989
2023-01-29T03:54:00.974Z,999.6736
2023-01-29T03:55:01.102Z,999.3364
2023-01-29T03:56:01.201Z,999.5656
2023-01-29T03:57:00.312Z,999.5725
2023-01-29T03:58:00.420Z,999.5378
2023-01-29T03:59:00.507Z,999.5378
2023-01-29T04:00:00.614Z,999.5933
2023-01-29T04:01:00.718Z,999.4058
2023-01-29T04:02:00.843Z,999.5031
2023-01-29T04:03:00.936Z,999.5031
2023-01-29T04:04:01.102Z,999.3156
2023-01-29T04:05:01.144Z,999.635
2023-01-29T04:06:00.239Z,999.3989
2023-01-29T04:07:00.346Z,999.4128
2023-01-29T04:08:00.475Z,999.2879
2023-01-29T04:09:00.566Z,999.3782
2023-01-29T04:10:00.701Z,999.3782
2023-01-29T04:11:00.777Z,999.3226
2023-01-29T04:12:00.877Z,999.1838
2023-01-29T04:13:01.008Z,999.2393
2023-01-29T04:14:01.109Z,999.2948
2023-01-29T04:15:01.199Z,999.2532
2023-01-29T04:16:00.315Z,999.3504
2023-01-29T04:17:00.410Z,999.2393
2023-01-29T04:18:00.517Z,999.1144
2023-01-29T04:19:00.641Z,999.2949
2023-01-29T04:20:00.729Z,999.2116
2023-01-29T04:21:00.837Z,999.281
2023-01-29T04:22:00.943Z,999.0867
2023-01-29T04:23:01.045Z,999.0728
2023-01-29T04:24:01.221Z,999.059
2023-01-29T04:25:00.266Z,999.1978
2023-01-29T04:26:00.379Z,999.0936
2023-01-29T04:27:00.482Z,998.8924
2023-01-29T04:28:00.590Z,999.1978
2023-01-29T04:29:00.700Z,999.1839
2023-01-29T04:30:00.799Z,999.0311
2023-01-29T04:31:01.149Z,999.1144
2023-01-29T04:32:01.017Z,999.1839
2023-01-29T04:33:01.118Z,999.1284
2023-01-29T04:34:00.252Z,999.2048
2023-01-29T04:35:00.342Z,999.0104
2023-01-29T04:36:00.465Z,999.0867
2023-01-29T04:37:00.635Z,999.0243
2023-01-29T04:38:00.675Z,999.066
2023-01-29T04:39:00.806Z,999.0937
2023-01-29T04:40:00.893Z,999.0937
2023-01-29T04:41:00.988Z,999.1284
2023-01-29T04:42:01.113Z,999.0382
2023-01-29T04:43:01.217Z,999.0174
2023-01-29T04:44:00.326Z,998.8716
2023-01-29T04:45:00.421Z,999.0174
2023-01-29T04:46:00.514Z,998.8161
2023-01-29T04:47:00.617Z,998.823
2023-01-29T04:48:00.736Z,999.1492
2023-01-29T04:49:00.862Z,998.83
2023-01-29T04:50:00.973Z,998.8161
2023-01-29T04:51:01.045Z,998.6426
2023-01-29T04:52:01.156Z,998.615
2023-01-29T04:53:00.265Z,998.7191
2023-01-29T04:54:00.372Z,998.5178
2023-01-29T04:55:00.487Z,998.5041
2023-01-29T04:56:00.578Z,998.4139
2023-01-29T04:57:00.677Z,998.5804
2023-01-29T04:58:00.783Z,998.4763
2023-01-29T04:59:00.890Z,998.6776
2023-01-29T05:00:01.014Z,998.6221
2023-01-29T05:01:01.093Z,998.6638
2023-01-29T05:02:01.228Z,998.5736
2023-01-29T05:03:00.336Z,998.4281
2023-01-29T05:04:00.412Z,998.5253
2023-01-29T05:05:00.571Z,998.7195
2023-01-29T05:06:00.649Z,998.4975
2023-01-29T05:07:00.726Z,998.6986
2023-01-29T05:08:00.834Z,998.4975
2023-01-29T05:09:00.939Z,998.5461
2023-01-29T05:10:01.067Z,998.5461
2023-01-29T05:11:01.204Z,998.6433
2023-01-29T05:12:00.259Z,998.5254
2023-01-29T05:13:00.356Z,998.5046
2023-01-29T05:14:00.475Z,998.8514
2023-01-29T05:15:00.566Z,998.6089
2023-01-29T05:16:00.727Z,998.6366
2023-01-29T05:17:00.778Z,998.4357
2023-01-29T05:18:00.870Z,998.5467
2023-01-29T05:19:00.972Z,998.4359
2023-01-29T05:20:01.069Z,998.7686
2023-01-29T05:21:01.205Z,998.5468
2023-01-29T05:22:00.289Z,998.4705
2023-01-29T05:23:00.397Z,998.6855
2023-01-29T05:24:00.594Z,998.526
2023-01-29T05:25:00.614Z,998.4635
2023-01-29T05:26:00.718Z,998.4637
2023-01-29T05:27:00.821Z,998.4359
2023-01-29T05:28:00.903Z,998.6576
2023-01-29T05:29:01.006Z,998.6924
2023-01-29T05:30:01.127Z,998.5468
2023-01-29T05:31:01.431Z,998.4777
2023-01-29T05:32:00.380Z,998.4985
2023-01-29T05:33:00.446Z,998.6718
2023-01-29T05:34:00.555Z,998.4639
2023-01-29T05:35:00.679Z,998.6026
2023-01-29T05:36:00.781Z,998.3116
2023-01-29T05:37:00.916Z,998.4571
2023-01-29T05:38:01.009Z,998.277
2023-01-29T05:39:01.093Z,998.5473
2023-01-29T05:40:01.191Z,998.3188
2023-01-29T05:41:00.307Z,998.4019
2023-01-29T05:42:00.395Z,998.2634
2023-01-29T05:43:00.521Z,998.4228
2023-01-29T05:44:00.611Z,998.2388
2023-01-29T05:45:00.758Z,998.3119
2023-01-29T05:46:00.827Z,998.3951
2023-01-29T05:47:00.927Z,998.3396
2023-01-29T05:48:01.058Z,998.4019
2023-01-29T05:49:01.162Z,998.4019
2023-01-29T05:50:00.255Z,998.4019
2023-01-29T05:51:00.353Z,998.2703
2023-01-29T05:52:00.464Z,998.4434
2023-01-29T05:53:00.567Z,998.4019
2023-01-29T05:54:00.674Z,998.4782
2023-01-29T05:55:00.778Z,998.3052
2023-01-29T05:56:00.901Z,998.1766
2023-01-29T05:57:00.975Z,998.0912
2023-01-29T05:58:01.079Z,998.2252
2023-01-29T05:59:01.198Z,998.3053
2023-01-29T06:00:00.289Z,998.333
2023-01-29T06:01:00.410Z,998.2845
2023-01-29T06:02:00.615Z,998.3607
2023-01-29T06:03:00.636Z,998.4232
2023-01-29T06:04:00.735Z,998.4232
2023-01-29T06:05:00.837Z,998.5894
2023-01-29T06:06:00.935Z,998.458
2023-01-29T06:07:01.034Z,998.6104
2023-01-29T06:08:01.152Z,998.6104
2023-01-29T06:09:00.244Z,998.5413
2023-01-29T06:10:00.381Z,998.6104
2023-01-29T06:11:00.459Z,998.5275
2023-01-29T06:12:00.658Z,998.6383
2023-01-29T06:13:00.688Z,998.4721
2023-01-29T06:14:00.794Z,998.6383
2023-01-29T06:15:00.913Z,998.839
2023-01-29T06:16:01.116Z,998.5829
2023-01-29T06:17:01.114Z,998.6452
2023-01-29T06:18:01.220Z,998.4998
2023-01-29T06:19:00.317Z,998.7629
2023-01-29T06:20:00.444Z,998.6104
2023-01-29T06:21:00.535Z,998.7629
2023-01-29T06:22:00.642Z,998.8528
2023-01-29T06:23:00.754Z,998.6658
2023-01-29T06:24:00.925Z,998.7489
2023-01-29T06:25:01.013Z,998.7766
2023-01-29T06:26:01.069Z,998.7835
2023-01-29T06:27:01.170Z,998.7766
2023-01-29T06:28:00.289Z,998.7697
2023-01-29T06:29:00.383Z,998.8528
2023-01-29T06:30:00.511Z,998.7143
2023-01-29T06:31:11.394Z,998.8527
2023-01-29T06:32:00.852Z,998.7142
2023-01-29T06:33:00.830Z,998.8596
2023-01-29T06:34:00.926Z,998.8665
2023-01-29T06:35:01.048Z,998.8665
2023-01-29T06:36:01.143Z,998.534
2023-01-29T06:37:00.241Z,998.5755
2023-01-29T06:38:00.379Z,998.7486
2023-01-29T06:39:00.466Z,998.527
2023-01-29T06:40:00.569Z,998.6031
2023-01-29T06:41:00.674Z,998.6723
2023-01-29T06:42:00.758Z,998.416
2023-01-29T06:43:00.862Z,998.4852
2023-01-29T06:44:00.970Z,998.6722
2023-01-29T06:45:01.092Z,998.5128
2023-01-29T06:46:01.302Z,998.492
2023-01-29T06:47:00.314Z,998.6375
2023-01-29T06:48:01.571Z,998.7413
2023-01-29T06:49:00.532Z,998.7275
2023-01-29T06:50:00.621Z,998.6998
2023-01-29T06:51:00.734Z,998.6998
2023-01-29T06:52:00.846Z,998.5612
2023-01-29T06:53:00.937Z,998.6374
2023-01-29T06:54:01.047Z,998.6305
2023-01-29T06:55:01.154Z,998.6651
2023-01-29T06:56:00.258Z,998.5819
2023-01-29T06:57:00.384Z,998.7482
2023-01-29T06:58:00.464Z,998.6026
2023-01-29T06:59:00.557Z,998.6165
2023-01-29T07:00:00.675Z,998.6997
2023-01-29T07:01:00.817Z,998.866
2023-01-29T07:02:00.929Z,998.6997
2023-01-29T07:03:01.013Z,998.866
2023-01-29T07:04:01.096Z,998.7274
2023-01-29T07:05:01.200Z,998.8798
2023-01-29T07:06:00.333Z,998.7759
2023-01-29T07:07:00.415Z,998.8036
2023-01-29T07:08:00.530Z,999.0115
2023-01-29T07:09:00.642Z,998.8729
2023-01-29T07:10:00.744Z,998.9076
2023-01-29T07:11:00.865Z,999.0462
2023-01-29T07:12:00.975Z,998.9214
2023-01-29T07:13:01.059Z,999.1709
2023-01-29T07:14:01.170Z,999.0462
2023-01-29T07:15:00.259Z,999.1293
2023-01-29T07:16:00.428Z,999.0809
2023-01-29T07:17:00.488Z,999.1363
2023-01-29T07:18:00.602Z,999.1017
2023-01-29T07:19:00.690Z,999.1294
2023-01-29T07:20:00.792Z,999.1017
2023-01-29T07:21:00.903Z,999.2472
2023-01-29T07:22:00.998Z,999.4967
2023-01-29T07:23:01.113Z,999.2749
2023-01-29T07:24:01.231Z,999.462
2023-01-29T07:25:00.314Z,999.462
2023-01-29T07:26:00.420Z,999.3166
2023-01-29T07:27:00.524Z,999.3858
2023-01-29T07:28:01.071Z,999.3166
2023-01-29T07:29:00.722Z,999.4621
2023-01-29T07:30:00.835Z,999.3512
2023-01-29T07:31:01.007Z,999.4205
2023-01-29T07:32:01.183Z,999.462
2023-01-29T07:33:01.185Z,999.462
2023-01-29T07:34:00.266Z,999.5244
2023-01-29T07:35:00.379Z,999.559
2023-01-29T07:36:00.494Z,999.6006
2023-01-29T07:37:00.596Z,999.5174
2023-01-29T07:38:00.713Z,999.4481
2023-01-29T07:39:00.817Z,999.4273
2023-01-29T07:40:00.900Z,999.4064
2023-01-29T07:41:03.023Z,999.4411
2023-01-29T07:42:01.141Z,999.4619
2023-01-29T07:43:01.215Z,999.6768
2023-01-29T07:44:00.329Z,999.6698
2023-01-29T07:45:00.457Z,999.6768
2023-01-29T07:46:00.600Z,999.6737
2023-01-29T07:47:00.636Z,999.6004
2023-01-29T07:48:00.751Z,999.7569
2023-01-29T07:49:00.823Z,999.649
2023-01-29T07:50:00.938Z,999.6351
2023-01-29T07:51:01.111Z,999.6945
2023-01-29T07:52:01.148Z,999.7361
2023-01-29T07:53:00.293Z,999.5865
2023-01-29T07:54:00.354Z,999.6736
2023-01-29T07:55:00.463Z,999.517
2023-01-29T07:56:00.580Z,999.6073
2023-01-29T07:57:00.683Z,999.3989
2023-01-29T07:58:00.800Z,999.4267
2023-01-29T07:59:00.891Z,999.3642
2023-01-29T08:00:00.991Z,999.5447
2023-01-29T08:01:01.271Z,999.5378
2023-01-29T08:02:01.290Z,999.5169
2023-01-29T08:03:00.327Z,999.4197
2023-01-29T08:04:00.428Z,999.5169
2023-01-29T08:05:00.522Z,999.3224
2023-01-29T08:06:00.627Z,999.4405
2023-01-29T08:07:00.732Z,999.3571
2023-01-29T08:08:07.013Z,999.5516
2023-01-29T08:09:00.946Z,999.2737
2023-01-29T08:10:01.044Z,999.4057
2023-01-29T08:11:01.145Z,999.5446
2023-01-29T08:12:00.256Z,999.3778
2023-01-29T08:13:00.370Z,999.4126
2023-01-29T08:14:00.453Z,999.3362
2023-01-29T08:15:00.592Z,999.4543
2023-01-29T08:16:00.671Z,999.4126
2023-01-29T08:17:00.788Z,999.4404
2023-01-29T08:18:00.920Z,999.5237
2023-01-29T08:19:00.993Z,999.5237
2023-01-29T08:20:01.115Z,999.5654
2023-01-29T08:21:01.316Z,999.5515
2023-01-29T08:22:00.309Z,999.4681
2023-01-29T08:23:00.509Z,999.2248
2023-01-29T08:25:08.165Z,999.1414
2023-01-29T08:26:00.765Z,999.1552
2023-01-29T08:27:00.838Z,999.0648
2023-01-29T08:28:00.963Z,999.0718
2023-01-29T08:29:01.033Z,999.2317
2023-01-29T08:30:01.142Z,999.1621
2023-01-29T08:31:00.282Z,999.0787
2023-01-29T08:32:00.414Z,999.1621
2023-01-29T08:33:00.475Z,999.1968
2023-01-29T08:34:00.553Z,999.0855
2023-01-29T08:35:00.671Z,998.9882
2023-01-29T08:36:00.760Z,998.9602
2023-01-29T08:37:00.874Z,998.9047
2023-01-29T08:38:00.995Z,998.8976
2023-01-29T08:39:01.094Z,998.8907
2023-01-29T08:40:01.201Z,998.9325
2023-01-29T08:41:00.292Z,998.9811
2023-01-29T08:42:00.410Z,999.2592
2023-01-29T08:43:02.251Z,999.1828
2023-01-29T08:44:00.734Z,999.148
2023-01-29T08:45:00.731Z,999.1618
2023-01-29T08:46:00.947Z,999.2175
2023-01-29T08:47:00.930Z,999.0506
2023-01-29T08:48:01.060Z,998.9671
2023-01-29T08:49:01.152Z,999.0436
2023-01-29T08:50:00.254Z,998.9601
2023-01-29T08:51:00.355Z,998.9045
2023-01-29T08:52:02.983Z,998.8419
2023-01-29T08:53:00.565Z,998.9114
2023-01-29T08:54:00.665Z,999.0435
2023-01-29T08:55:00.776Z,998.9184
2023-01-29T08:56:00.873Z,999.0296
2023-01-29T08:57:00.987Z,999.1687
2023-01-29T08:58:01.088Z,998.8555
2023-01-29T08:59:01.220Z,998.939
2023-01-29T09:00:00.304Z,998.9182
2023-01-29T09:01:00.435Z,998.939
2023-01-29T09:02:00.510Z,999.2382
2023-01-29T09:03:00.643Z,999.273
2023-01-29T09:04:00.780Z,999.2033
2023-01-29T09:05:00.866Z,999.092
2023-01-29T09:06:00.938Z,999.1476
2023-01-29T09:07:01.050Z,999.1198
2023-01-29T09:08:01.151Z,999.3703
2023-01-29T09:09:00.272Z,999.3355
2023-01-29T09:10:00.398Z,999.1268
2023-01-29T09:11:00.489Z,999.3703
2023-01-29T09:12:00.577Z,999.2868
2023-01-29T09:13:00.685Z,999.6695
2023-01-29T09:14:00.786Z,999.4399
2023-01-29T09:15:00.911Z,999.5025
2023-01-29T09:16:00.996Z,999.3702
2023-01-29T09:17:01.115Z,999.2936
2023-01-29T09:18:01.231Z,999.1613
2023-01-29T09:19:00.327Z,999.1057
2023-01-29T09:20:00.445Z,999.057
2023-01-29T09:21:00.529Z,999.0709
2023-01-29T09:22:00.672Z,999.1822
2023-01-29T09:23:00.744Z,999.1752
2023-01-29T09:24:00.864Z,999.21
2023-01-29T09:25:00.985Z,999.0498
2023-01-29T09:26:01.062Z,999.0777
2023-01-29T09:27:01.161Z,999.3213
2023-01-29T09:28:00.271Z,999.3631
2023-01-29T09:29:00.373Z,999.3074
2023-01-29T09:30:00.493Z,999.3492
2023-01-29T09:31:00.698Z,999.1821
2023-01-29T09:32:00.718Z,999.3143
2023-01-29T09:33:00.799Z,999.175
2023-01-29T09:34:00.882Z,999.4396
2023-01-29T09:35:00.995Z,999.4396
2023-01-29T09:36:01.110Z,999.3421
2023-01-29T09:37:01.212Z,999.1472
2023-01-29T09:38:00.322Z,999.4048
2023-01-29T09:39:00.424Z,999.3908
2023-01-29T09:40:00.535Z,999.1192
2023-01-29T09:41:00.666Z,999.3281
2023-01-29T09:42:00.759Z,999.3281
2023-01-29T09:43:00.856Z,999.1052
2023-01-29T09:44:00.954Z,999.1052
2023-01-29T09:45:01.082Z,998.8822
2023-01-29T09:46:01.243Z,998.8822
2023-01-29T09:47:00.276Z,998.9727
2023-01-29T09:48:00.384Z,998.9517
2023-01-29T09:49:00.490Z,998.9169
2023-01-29T09:50:00.609Z,999.3698
2023-01-29T09:51:00.728Z,999.0842
2023-01-29T09:52:00.826Z,999.14
2023-01-29T09:53:00.925Z,998.9797
2023-01-29T09:54:01.030Z,999.1678
2023-01-29T09:55:01.159Z,999.2096
2023-01-29T09:56:00.261Z,999.2026
2023-01-29T09:57:00.392Z,999.1052
2023-01-29T09:58:00.468Z,999.0493
2023-01-29T09:59:01.755Z,999.0075
2023-01-29T10:00:00.665Z,998.7845
2023-01-29T10:01:00.781Z,998.7845
2023-01-29T10:02:01.075Z,998.7914
2023-01-29T10:03:01.013Z,998.7843
2023-01-29T10:04:01.109Z,998.8192
2023-01-29T10:05:01.204Z,998.7426
2023-01-29T10:06:00.304Z,998.7287
2023-01-29T10:07:00.404Z,998.652
2023-01-29T10:08:00.539Z,998.5683
2023-01-29T10:09:00.611Z,998.4917
2023-01-29T10:10:00.719Z,998.4776
2023-01-29T10:11:00.847Z,998.5124
2023-01-29T10:12:00.944Z,998.3661
2023-01-29T10:13:01.050Z,998.3661
2023-01-29T10:14:01.169Z,998.4637
2023-01-29T10:15:00.258Z,998.2228
2023-01-29T10:16:00.363Z,998.3241
2023-01-29T10:17:00.566Z,998.2752
2023-01-29T10:18:00.597Z,998.4773
2023-01-29T10:19:00.697Z,998.533
2023-01-29T10:20:00.795Z,998.4146
2023-01-29T10:21:00.899Z,998.31
2023-01-29T10:22:01.014Z,998.3795
2023-01-29T10:23:01.099Z,998.1871
2023-01-29T10:24:01.196Z,998.2569
2023-01-29T10:25:00.338Z,998.407
2023-01-29T10:26:00.412Z,998.4767
2023-01-29T10:27:00.511Z,998.4766
2023-01-29T10:28:00.617Z,998.2673
2023-01-29T10:29:00.725Z,998.3651
2023-01-29T10:30:00.860Z,998.4417
2023-01-29T10:31:01.052Z,998.4275
2023-01-29T10:32:01.161Z,998.3577
2023-01-29T10:33:01.143Z,998.4904
2023-01-29T10:34:02.938Z,998.316
2023-01-29T10:35:00.401Z,998.4067
2023-01-29T10:36:00.486Z,998.4763
2023-01-29T10:37:00.587Z,998.3924
2023-01-29T10:38:00.691Z,998.4205
2023-01-29T10:39:00.800Z,998.2562
2023-01-29T10:40:00.918Z,998.3159
2023-01-29T10:41:00.993Z,998.4484
2023-01-29T10:42:01.092Z,998.3576
2023-01-29T10:43:01.245Z,998.1793
2023-01-29T10:44:00.312Z,998.2561
2023-01-29T10:45:00.422Z,998.2143
2023-01-29T10:46:00.536Z,998.1723
2023-01-29T10:47:00.653Z,998.1723
2023-01-29T10:48:00.731Z,998.193
2023-01-29T10:49:00.847Z,998.0514
2023-01-29T10:50:00.942Z,998.0791
2023-01-29T10:51:01.061Z,997.9534
2023-01-29T10:52:01.149Z,998.1928
2023-01-29T10:53:00.255Z,998.0091
2023-01-29T10:54:00.376Z,997.9184
2023-01-29T10:55:00.501Z,997.9394
2023-01-29T10:56:02.494Z,997.8378
2023-01-29T10:57:00.693Z,998.0791
2023-01-29T10:58:02.795Z,997.9953
2023-01-29T10:59:00.899Z,997.9673
2023-01-29T11:00:01.016Z,997.9255
2023-01-29T11:01:01.148Z,997.8378
2023-01-29T11:02:01.273Z,997.9254
2023-01-29T11:03:00.539Z,998.0023
2023-01-29T11:04:00.442Z,998.0091
2023-01-29T11:05:00.572Z,997.9323
2023-01-29T11:06:00.671Z,997.7817
2023-01-29T11:07:00.769Z,997.7466
2023-01-29T11:08:00.863Z,997.8373
2023-01-29T11:09:00.981Z,997.7814
2023-01-29T11:10:01.078Z,997.8512
2023-01-29T11:11:01.200Z,997.6068
2023-01-29T11:12:00.286Z,997.7534
2023-01-29T11:13:00.392Z,997.7043
2023-01-29T11:14:00.505Z,997.6692
2023-01-29T11:15:00.597Z,997.7391
2023-01-29T11:16:00.719Z,997.7043
2023-01-29T11:17:00.869Z,997.5646
2023-01-29T11:18:00.911Z,997.6971
2023-01-29T11:19:01.015Z,997.746
2023-01-29T11:20:01.119Z,997.5505
2023-01-29T11:21:01.250Z,997.6412
2023-01-29T11:22:00.324Z,997.7668
2023-01-29T11:23:00.497Z,997.6202
2023-01-29T11:24:00.541Z,997.7391
2023-01-29T11:25:00.652Z,997.7038
2023-01-29T11:26:00.799Z,997.5641
2023-01-29T11:27:00.897Z,997.3825
2023-01-29T11:28:00.967Z,997.606
2023-01-29T11:29:01.078Z,997.3965
2023-01-29T11:30:01.173Z,997.4524
2023-01-29T11:31:00.353Z,997.4942
2023-01-29T11:32:00.387Z,997.5573
2023-01-29T11:33:00.507Z,997.4942
2023-01-29T11:34:00.614Z,997.3059
2023-01-29T11:35:00.720Z,997.3686
2023-01-29T11:36:00.838Z,997.4384
2023-01-29T11:37:00.953Z,997.1938
2023-01-29T11:38:01.039Z,997.2705
2023-01-29T11:39:01.154Z,997.1029
2023-01-29T11:40:00.278Z,997.1795
2023-01-29T11:41:00.383Z,997.1239
2023-01-29T11:42:00.484Z,996.873
2023-01-29T11:43:00.577Z,996.9355
2023-01-29T11:44:00.682Z,997.0473
2023-01-29T11:45:00.784Z,996.9776
2023-01-29T11:46:00.901Z,996.9148
2023-01-29T11:47:01.026Z,997.159